createdAt,value
2022-08-09T00:00:23.113Z,90.20
2022-08-09T00:02:51.637Z,90.40
2022-08-09T00:06:17.737Z,90.40
2022-08-09T00:08:11.334Z,90.40
2022-08-09T00:10:40.655Z,90.60
2022-08-09T00:13:16.821Z,90.80
2022-08-09T00:15:58.923Z,90.80
2022-08-09T00:18:34.708Z,90.90
2022-08-09T00:21:08.509Z,91.00
2022-08-09T00:23:54.642Z,91.00
2022-08-09T00:26:29.890Z,91.00
2022-08-09T00:29:01.734Z,91.20
2022-08-09T00:31:58.633Z,91.40
2022-08-09T00:34:19.052Z,91.50
2022-08-09T00:36:48.951Z,91.70
2022-08-09T00:40:12.838Z,91.70
2022-08-09T00:44:14.815Z,91.90
2022-08-09T00:44:52.263Z,91.60
2022-08-09T00:47:24.780Z,91.60
2022-08-09T00:49:54.922Z,91.60
2022-08-09T00:52:30.487Z,91.60
2022-08-09T00:55:02.010Z,91.60
2022-08-09T00:57:34.256Z,91.70
2022-08-09T01:00:21.926Z,91.70
2022-08-09T01:03:01.522Z,91.80
2022-08-09T01:05:54.838Z,91.80
2022-08-09T01:09:00.790Z,91.80
2022-08-09T01:12:16.431Z,91.70
2022-08-09T01:15:17.921Z,91.90
2022-08-09T01:18:03.446Z,91.90
2022-08-09T01:21:13.527Z,91.80
2022-08-09T01:24:05.020Z,91.70
2022-08-09T01:26:46.246Z,91.80
2022-08-09T01:29:16.094Z,91.80
2022-08-09T01:32:32.446Z,91.60
2022-08-09T01:34:35.830Z,91.70
2022-08-09T01:37:09.300Z,91.80
2022-08-09T01:39:38.393Z,92.00
2022-08-09T01:42:10.784Z,91.90
2022-08-09T01:44:41.330Z,91.90
2022-08-09T01:47:11.567Z,92.00
2022-08-09T01:49:39.886Z,91.90
2022-08-09T01:52:14.835Z,92.10
2022-08-09T01:54:48.507Z,92.10
2022-08-09T01:57:25.451Z,92.20
2022-08-09T02:00:00.350Z,92.40
2022-08-09T02:02:42.628Z,92.40
2022-08-09T02:05:15.915Z,92.50
2022-08-09T02:08:39.640Z,92.70
2022-08-09T02:10:51.852Z,92.50
2022-08-09T02:13:26.221Z,92.70
2022-08-09T02:16:07.908Z,92.80
2022-08-09T02:18:38.413Z,92.80
2022-08-09T02:21:17.043Z,92.70
2022-08-09T02:23:54.847Z,92.80
2022-08-09T02:26:27.372Z,93.10
2022-08-09T02:29:00.439Z,93.50
2022-08-09T02:31:36.282Z,93.30
2022-08-09T02:34:13.184Z,93.50
2022-08-09T02:36:55.674Z,93.50
2022-08-09T02:39:39.889Z,93.70
2022-08-09T02:42:17.228Z,93.90
2022-08-09T02:45:15.391Z,94.00
2022-08-09T02:47:46.645Z,94.10
2022-08-09T02:50:30.457Z,94.10
2022-08-09T02:53:03.931Z,94.20
2022-08-09T02:55:46.503Z,94.20
2022-08-09T02:58:35.439Z,94.40
2022-08-09T03:01:07.974Z,94.50
2022-08-09T03:04:16.492Z,94.40
2022-08-09T03:06:27.426Z,94.40
2022-08-09T03:08:55.961Z,94.50
2022-08-09T03:11:29.904Z,94.50
2022-08-09T03:14:13.603Z,94.60
2022-08-09T03:16:45.046Z,94.70
2022-08-09T03:19:52.449Z,95.20
2022-08-09T03:22:12.039Z,95.10
2022-08-09T03:24:52.246Z,95.20
2022-08-09T03:27:22.270Z,95.40
2022-08-09T03:29:57.777Z,95.70
2022-08-09T03:32:31.565Z,95.60
2022-08-09T03:35:00.493Z,96.10
2022-08-09T03:37:55.421Z,96.50
2022-08-09T03:40:17.018Z,96.60
2022-08-09T03:42:46.700Z,96.50
2022-08-09T03:45:15.515Z,96.70
2022-08-09T03:47:46.433Z,96.80
2022-08-09T03:50:18.882Z,96.90
2022-08-09T03:52:58.424Z,97.10
2022-08-09T03:55:27.217Z,97.10
2022-08-09T03:58:06.411Z,97.20
2022-08-09T04:00:44.630Z,97.40
2022-08-09T04:03:19.591Z,97.80
2022-08-09T04:05:52.262Z,97.80
2022-08-09T04:08:19.473Z,98.00
2022-08-09T04:10:56.363Z,98.00
2022-08-09T04:14:36.734Z,98.30
2022-08-09T04:16:20.471Z,98.60
2022-08-09T04:18:49.246Z,99.10
2022-08-09T04:21:19.067Z,99.30
2022-08-09T04:23:53.802Z,99.50
2022-08-09T04:26:23.316Z,99.60
2022-08-09T04:28:50.810Z,99.30
2022-08-09T04:31:19.310Z,99.50
2022-08-09T04:33:56.570Z,99.60
2022-08-09T04:36:27.158Z,99.90
2022-08-09T04:38:56.829Z,99.90
2022-08-09T04:41:33.067Z,99.90
2022-08-09T04:44:06.328Z,99.80
2022-08-09T04:46:57.421Z,99.70
2022-08-09T04:49:40.206Z,99.60
2022-08-09T04:52:27.322Z,99.60
2022-08-09T04:55:00.609Z,99.50
2022-08-09T04:57:59.411Z,99.60
2022-08-09T05:00:16.988Z,99.60
2022-08-09T05:02:51.765Z,99.70
2022-08-09T05:05:32.352Z,99.80
2022-08-09T05:08:08.081Z,99.80
2022-08-09T05:10:36.745Z,99.70
2022-08-09T05:13:04.272Z,99.50
2022-08-09T05:15:39.434Z,99.40
2022-08-09T05:18:38.009Z,99.80
2022-08-09T05:21:02.674Z,99.80
2022-08-09T05:23:58.038Z,99.80
2022-08-09T05:26:36.577Z,99.90
2022-08-09T05:29:17.360Z,99.90
2022-08-09T05:31:56.347Z,99.90
2022-08-09T05:34:31.267Z,99.60
2022-08-09T05:37:11.344Z,99.40
2022-08-09T05:39:43.602Z,99.90
2022-08-09T05:42:17.774Z,99.40
2022-08-09T05:44:50.647Z,99.90
2022-08-09T05:47:22.800Z,99.90
2022-08-09T05:50:26.746Z,99.40
2022-08-09T05:52:41.803Z,99.10
2022-08-09T05:55:20.649Z,99.90
2022-08-09T05:57:55.877Z,99.70
2022-08-09T06:00:30.305Z,99.60
2022-08-09T06:03:03.863Z,99.10
2022-08-09T06:05:57.169Z,99.70
2022-08-09T06:08:25.269Z,99.20
2022-08-09T06:10:56.980Z,99.20
2022-08-09T06:13:28.282Z,99.10
2022-08-09T06:16:01.565Z,99.20
2022-08-09T06:18:32.397Z,99.40
2022-08-09T06:20:59.770Z,98.80
2022-08-09T06:23:55.577Z,99.00
2022-08-09T06:26:20.346Z,99.30
2022-08-09T06:28:59.552Z,98.20
2022-08-09T06:31:31.015Z,98.60
2022-08-09T06:33:58.686Z,98.30
2022-08-09T06:36:27.330Z,98.90
2022-08-09T06:38:57.500Z,98.10
2022-08-09T06:41:57.493Z,97.90
2022-08-09T06:44:18.271Z,97.40
2022-08-09T06:46:45.783Z,98.30
2022-08-09T06:49:15.983Z,96.80
2022-08-09T06:51:49.735Z,96.90
2022-08-09T06:54:20.339Z,96.80
2022-08-09T06:56:47.392Z,96.80
2022-08-09T07:00:56.456Z,97.60
2022-08-09T07:02:04.414Z,97.90
2022-08-09T07:04:32.620Z,97.20
2022-08-09T07:07:00.942Z,96.70
2022-08-09T07:09:55.637Z,95.60
2022-08-09T07:12:20.303Z,95.70
2022-08-09T07:14:51.167Z,95.60
2022-08-09T07:17:20.349Z,96.80
2022-08-09T07:19:50.530Z,96.20
2022-08-09T07:22:18.731Z,95.50
2022-08-09T07:25:05.471Z,96.00
2022-08-09T07:27:42.942Z,95.00
2022-08-09T07:30:14.891Z,95.00
2022-08-09T07:32:43.026Z,95.10
2022-08-09T07:35:14.798Z,95.30
2022-08-09T07:37:46.175Z,94.30
2022-08-09T07:40:20.491Z,95.00
2022-08-09T07:43:00.470Z,95.30
2022-08-09T07:45:37.731Z,94.70
2022-08-09T07:48:06.101Z,95.00
2022-08-09T07:50:36.514Z,94.00
2022-08-09T07:53:05.366Z,94.00
2022-08-09T07:56:02.751Z,94.50
2022-08-09T07:58:21.497Z,93.10
2022-08-09T08:00:59.072Z,94.40
2022-08-09T08:03:36.960Z,94.20
2022-08-09T08:06:05.343Z,93.90
2022-08-09T08:09:00.310Z,94.50
2022-08-09T08:12:09.186Z,94.00
2022-08-09T08:14:07.127Z,93.40
2022-08-09T08:16:36.103Z,93.80
2022-08-09T08:19:06.697Z,94.00
2022-08-09T08:21:34.159Z,93.30
2022-08-09T08:24:12.219Z,93.40
2022-08-09T08:26:56.108Z,94.00
2022-08-09T08:29:27.428Z,93.30
2022-08-09T08:32:03.479Z,93.90
2022-08-09T08:34:34.506Z,94.60
2022-08-09T08:37:02.529Z,94.30
2022-08-09T08:39:38.205Z,94.00
2022-08-09T08:42:10.839Z,94.20
2022-08-09T08:44:39.488Z,94.30
2022-08-09T08:47:12.917Z,93.30
2022-08-09T08:49:47.703Z,94.20
2022-08-09T08:52:57.769Z,93.60
2022-08-09T08:55:10.734Z,93.10
2022-08-09T08:57:41.006Z,93.90
2022-08-09T09:00:20.511Z,92.40
2022-08-09T09:03:11.510Z,93.30
2022-08-09T09:05:58.264Z,92.20
2022-08-09T09:08:42.212Z,92.70
2022-08-09T09:11:17.393Z,92.00
2022-08-09T09:13:55.587Z,91.50
2022-08-09T09:16:30.195Z,91.20
2022-08-09T09:19:37.318Z,91.90
2022-08-09T09:22:05.390Z,92.20
2022-08-09T09:24:43.199Z,90.30
2022-08-09T09:27:47.205Z,91.40
2022-08-09T09:30:28.918Z,90.10
2022-08-09T09:33:14.394Z,91.10
2022-08-09T09:36:02.321Z,90.60
2022-08-09T09:38:53.047Z,90.30
2022-08-09T09:41:26.345Z,90.50
2022-08-09T09:44:12.760Z,90.70
2022-08-09T09:46:46.104Z,90.60
2022-08-09T09:49:56.219Z,90.40
2022-08-09T09:52:16.320Z,87.30
2022-08-09T09:55:23.927Z,90.50
2022-08-09T09:58:15.703Z,88.00
2022-08-09T10:00:52.582Z,88.70
2022-08-09T10:03:42.678Z,89.70
2022-08-09T10:06:11.667Z,87.90
2022-08-09T10:08:54.190Z,89.30
2022-08-09T10:12:00.043Z,88.20
2022-08-09T10:14:33.105Z,86.70
2022-08-09T10:17:51.071Z,86.90
2022-08-09T10:20:00.194Z,86.10
2022-08-09T10:22:37.111Z,85.80
2022-08-09T10:25:12.115Z,87.90
2022-08-09T10:27:55.986Z,85.40
2022-08-09T10:33:29.829Z,84.90
2022-08-09T10:36:04.559Z,82.30
2022-08-09T10:38:54.336Z,84.80
2022-08-09T10:41:20.487Z,84.00
2022-08-09T10:43:59.647Z,84.40
2022-08-09T10:47:03.753Z,83.40
2022-08-09T10:49:51.466Z,82.90
2022-08-09T10:56:30.297Z,80.10
2022-08-09T10:59:01.165Z,80.60
2022-08-09T11:03:16.003Z,82.60
2022-08-09T11:04:32.521Z,82.50
2022-08-09T11:07:00.884Z,78.00
2022-08-09T11:09:47.637Z,77.20
2022-08-09T11:12:26.501Z,76.40
2022-08-09T11:15:24.344Z,77.60
2022-08-09T11:18:02.814Z,75.50
2022-08-09T11:20:43.307Z,74.30
2022-08-09T11:23:11.496Z,76.30
2022-08-09T11:25:47.804Z,73.80
2022-08-09T11:28:56.073Z,74.10
2022-08-09T11:31:50.171Z,73.90
2022-08-09T11:34:44.171Z,71.70
2022-08-09T11:37:31.264Z,72.20
2022-08-09T11:40:17.761Z,72.60
2022-08-09T11:42:49.667Z,70.30
2022-08-09T11:45:37.968Z,72.50
2022-08-09T11:48:28.215Z,73.40
2022-08-09T11:53:02.252Z,71.60
2022-08-09T11:54:00.603Z,70.90
2022-08-09T11:56:41.380Z,72.20
2022-08-09T11:59:33.029Z,70.60
2022-08-09T12:02:18.010Z,71.20
2022-08-09T12:04:54.671Z,70.50
2022-08-09T12:07:41.643Z,74.10
2022-08-09T12:10:14.469Z,69.20
2022-08-09T12:13:00.315Z,70.30
2022-08-09T12:15:50.204Z,69.80
2022-08-09T12:18:29.889Z,70.90
2022-08-09T12:20:59.312Z,71.20
2022-08-09T12:23:57.954Z,70.80
2022-08-09T12:26:19.825Z,69.90
2022-08-09T12:29:11.739Z,70.00
2022-08-09T12:32:01.551Z,70.70
2022-08-09T12:34:39.986Z,71.70
2022-08-09T12:37:22.184Z,69.50
2022-08-09T12:40:07.040Z,71.60
2022-08-09T12:42:37.345Z,69.10
2022-08-09T12:45:32.492Z,69.20
2022-08-09T12:47:53.713Z,70.00
2022-08-09T12:50:23.511Z,70.60
2022-08-09T12:53:08.471Z,69.30
2022-08-09T12:56:15.778Z,68.70
2022-08-09T12:58:27.666Z,70.30
2022-08-09T13:00:56.471Z,70.00
2022-08-09T13:03:57.269Z,69.10
2022-08-09T13:06:42.176Z,68.30
2022-08-09T13:09:12.515Z,69.60
2022-08-09T13:11:47.871Z,68.70
2022-08-09T13:14:42.349Z,69.80
2022-08-09T13:17:44.439Z,69.00
2022-08-09T13:20:17.518Z,69.00
2022-08-09T13:23:01.605Z,69.80
2022-08-09T13:25:42.826Z,70.40
2022-08-09T13:28:24.525Z,67.50
2022-08-09T13:32:16.241Z,70.10
2022-08-09T13:33:58.567Z,69.00
2022-08-09T13:36:42.107Z,68.50
2022-08-09T13:41:19.451Z,68.60
2022-08-09T13:42:12.360Z,69.60
2022-08-09T13:44:42.799Z,68.80
2022-08-09T13:47:29.404Z,68.20
2022-08-09T13:50:30.339Z,69.80
2022-08-09T13:52:59.224Z,71.20
2022-08-09T13:55:29.054Z,69.80
2022-08-09T13:57:58.391Z,68.80
2022-08-09T14:00:29.329Z,69.50
2022-08-09T14:03:03.976Z,68.80
2022-08-09T14:05:58.860Z,68.90
2022-08-09T14:08:30.723Z,70.30
2022-08-09T14:11:00.454Z,68.80
2022-08-09T14:14:22.356Z,69.50
2022-08-09T14:16:19.836Z,66.60
2022-08-09T14:18:57.164Z,67.70
2022-08-09T14:21:29.082Z,70.00
2022-08-09T14:24:00.949Z,69.00
2022-08-09T14:26:33.459Z,68.50
2022-08-09T14:29:07.756Z,67.70
2022-08-09T14:31:54.226Z,67.60
2022-08-09T14:34:30.872Z,67.50
2022-08-09T14:37:06.758Z,67.20
2022-08-09T14:39:40.109Z,67.60
2022-08-09T14:42:13.632Z,65.70
2022-08-09T14:44:59.333Z,64.00
2022-08-09T14:47:44.790Z,65.00
2022-08-09T14:50:16.247Z,64.90
2022-08-09T14:52:47.831Z,65.50
2022-08-09T14:55:20.249Z,65.70
2022-08-09T14:57:48.832Z,64.50
2022-08-09T15:00:16.939Z,63.00
2022-08-09T15:02:47.555Z,62.70
2022-08-09T15:05:18.934Z,62.50
2022-08-09T15:07:56.650Z,62.50
2022-08-09T15:10:31.719Z,61.80
2022-08-09T15:13:03.170Z,61.00
2022-08-09T15:15:34.504Z,61.40
2022-08-09T15:18:07.639Z,62.90
2022-08-09T15:21:56.348Z,63.70
2022-08-09T15:24:03.041Z,61.10
2022-08-09T15:26:18.774Z,63.20
2022-08-09T15:28:58.050Z,63.30
2022-08-09T15:31:41.884Z,61.00
2022-08-09T15:34:33.151Z,63.50
2022-08-09T15:36:58.161Z,61.70
2022-08-09T15:39:25.962Z,60.60
2022-08-09T15:42:02.907Z,61.00
2022-08-09T15:44:32.612Z,60.60
2022-08-09T15:47:00.939Z,60.60
2022-08-09T15:49:28.543Z,60.70
2022-08-09T15:52:04.392Z,60.30
2022-08-09T15:54:46.219Z,61.40
2022-08-09T15:57:35.015Z,61.50
2022-08-09T16:00:25.763Z,60.60
2022-08-09T16:02:57.938Z,60.70
2022-08-09T16:05:47.226Z,62.30
2022-08-09T16:08:30.139Z,61.40
2022-08-09T16:11:02.673Z,61.80
2022-08-09T16:14:03.839Z,59.90
2022-08-09T16:16:19.301Z,61.70
2022-08-09T16:18:47.738Z,60.80
2022-08-09T16:21:17.772Z,61.70
2022-08-09T16:23:58.567Z,61.00
2022-08-09T16:26:34.435Z,61.30
2022-08-09T16:29:14.160Z,60.20
2022-08-09T16:32:19.002Z,61.40
2022-08-09T16:34:53.604Z,60.80
2022-08-09T16:37:54.550Z,60.90
2022-08-09T16:40:11.693Z,60.40
2022-08-09T16:42:44.850Z,59.90
2022-08-09T16:45:14.018Z,59.80
2022-08-09T16:48:41.363Z,59.90
2022-08-09T16:50:33.930Z,59.60
2022-08-09T16:53:03.234Z,59.80
2022-08-09T16:55:59.841Z,60.00
2022-08-09T16:58:21.038Z,59.50
2022-08-09T17:00:49.536Z,59.80
2022-08-09T17:03:21.588Z,60.10
2022-08-09T17:06:03.422Z,59.80
2022-08-09T17:08:58.881Z,59.70
2022-08-09T17:11:40.608Z,59.70
2022-08-09T17:14:25.486Z,59.90
2022-08-09T17:17:02.257Z,60.30
2022-08-09T17:19:47.572Z,59.80
2022-08-09T17:22:28.910Z,61.10
2022-08-09T17:25:03.346Z,61.90
2022-08-09T17:27:38.238Z,62.10
2022-08-09T17:30:12.816Z,62.70
2022-08-09T17:32:45.248Z,61.50
2022-08-09T17:35:14.460Z,60.60
2022-08-09T17:38:11.659Z,61.40
2022-08-09T17:40:33.258Z,61.40
2022-08-09T17:43:32.255Z,62.20
2022-08-09T17:46:03.580Z,61.50
2022-08-09T17:48:38.836Z,61.30
2022-08-09T17:51:18.641Z,61.50
2022-08-09T17:53:53.565Z,61.00
2022-08-09T17:56:35.361Z,61.50
2022-08-09T17:59:09.361Z,62.40
2022-08-09T18:02:03.295Z,62.90
2022-08-09T18:04:27.773Z,64.70
2022-08-09T18:06:55.752Z,67.60
2022-08-09T18:09:40.673Z,68.50
2022-08-09T18:12:19.360Z,70.10
2022-08-09T18:14:54.140Z,70.50
2022-08-09T18:18:02.753Z,70.00
2022-08-09T18:20:54.310Z,70.20
2022-08-09T18:23:05.514Z,71.20
2022-08-09T18:25:52.661Z,68.70
2022-08-09T18:30:38.427Z,68.70
2022-08-09T18:31:14.305Z,69.50
2022-08-09T18:33:44.285Z,70.10
2022-08-09T18:36:25.934Z,71.20
2022-08-09T18:39:02.744Z,71.20
2022-08-09T18:41:34.972Z,71.60
2022-08-09T18:44:13.275Z,71.20
2022-08-09T18:46:49.769Z,71.60
2022-08-09T18:49:27.942Z,72.30
2022-08-09T18:51:59.316Z,72.20
2022-08-09T18:54:28.668Z,72.20
2022-08-09T18:57:05.840Z,72.20
2022-08-09T18:59:48.431Z,72.70
2022-08-09T19:02:18.361Z,73.80
2022-08-09T19:04:47.547Z,73.20
2022-08-09T19:07:31.628Z,72.70
2022-08-09T19:10:16.890Z,73.20
2022-08-09T19:12:55.527Z,73.50
2022-08-09T19:15:31.908Z,74.00
2022-08-09T19:17:59.466Z,74.00
2022-08-09T19:20:34.117Z,74.10
2022-08-09T19:23:01.605Z,74.30
2022-08-09T19:26:01.503Z,75.10
2022-08-09T19:28:16.702Z,75.40
2022-08-09T19:30:44.883Z,75.50
2022-08-09T19:33:19.579Z,75.60
2022-08-09T19:35:56.952Z,75.70
2022-08-09T19:38:27.063Z,75.80
2022-08-09T19:40:54.821Z,75.60
2022-08-09T19:44:01.721Z,76.00
2022-08-09T19:46:14.445Z,75.70
2022-08-09T19:49:01.667Z,75.90
2022-08-09T19:51:30.935Z,76.10
2022-08-09T19:53:59.520Z,76.80
2022-08-09T19:56:28.525Z,77.20
2022-08-09T19:59:40.548Z,77.50
2022-08-09T20:02:04.452Z,77.60
2022-08-09T20:04:37.751Z,77.70
2022-08-09T20:07:21.105Z,78.20
2022-08-09T20:09:48.905Z,78.80
2022-08-09T20:12:31.688Z,79.60
2022-08-09T20:16:31.620Z,78.60
2022-08-09T20:17:54.852Z,78.40
2022-08-09T20:20:24.652Z,79.20
2022-08-09T20:22:56.454Z,78.70
2022-08-09T20:25:24.252Z,78.80
2022-08-09T20:27:52.370Z,79.30
2022-08-09T20:30:21.700Z,80.60
2022-08-09T20:32:52.311Z,81.90
2022-08-09T20:35:21.264Z,80.90
2022-08-09T20:38:23.423Z,80.10
2022-08-09T20:40:36.868Z,79.90
2022-08-09T20:43:19.158Z,80.30
2022-08-09T20:45:56.850Z,80.30
2022-08-09T20:48:25.778Z,80.60
2022-08-09T20:50:58.273Z,80.20
2022-08-09T20:53:37.225Z,81.20
2022-08-09T20:56:20.216Z,80.60
2022-08-09T20:58:58.216Z,81.90
2022-08-09T21:01:35.351Z,81.40
2022-08-09T21:05:55.220Z,82.00
2022-08-09T21:07:11.328Z,82.00
2022-08-09T21:09:45.577Z,82.70
2022-08-09T21:14:42.453Z,82.20
2022-08-09T21:18:23.187Z,83.00
2022-08-09T21:20:17.590Z,82.50
2022-08-09T21:22:54.300Z,82.20
2022-08-09T21:25:43.982Z,82.90
2022-08-09T21:28:36.327Z,82.90
2022-08-09T21:31:17.857Z,82.60
2022-08-09T21:33:52.135Z,83.40
2022-08-09T21:36:23.046Z,84.10
2022-08-09T21:38:57.448Z,83.40
2022-08-09T21:42:04.871Z,85.70
2022-08-09T21:44:34.029Z,86.10
2022-08-09T21:47:04.896Z,86.70
2022-08-09T21:49:40.126Z,87.50
2022-08-09T21:52:17.591Z,86.80
2022-08-09T21:55:03.047Z,85.90
2022-08-09T21:57:38.971Z,86.20
2022-08-09T22:00:36.311Z,86.60
2022-08-09T22:03:12.666Z,86.20
2022-08-09T22:05:47.548Z,85.90
2022-08-09T22:08:18.485Z,86.20
2022-08-09T22:11:49.671Z,86.40
2022-08-09T22:13:36.670Z,87.40
2022-08-09T22:16:08.841Z,87.90
2022-08-09T22:18:38.656Z,88.80
2022-08-09T22:21:45.104Z,88.40
2022-08-09T22:24:17.147Z,88.50
2022-08-09T22:26:51.642Z,88.40
2022-08-09T22:29:24.016Z,89.40
2022-08-09T22:31:57.370Z,90.00
2022-08-09T22:34:28.164Z,90.10
2022-08-09T22:36:58.161Z,90.30
2022-08-09T22:39:55.511Z,90.50
2022-08-09T22:42:20.938Z,90.60
2022-08-09T22:45:00.038Z,90.60
2022-08-09T22:48:10.966Z,90.60
2022-08-09T22:50:26.341Z,90.80
2022-08-09T22:52:54.907Z,90.70
2022-08-09T22:55:39.405Z,90.90
2022-08-09T22:58:30.710Z,91.00
2022-08-09T23:01:03.257Z,91.40
2022-08-09T23:04:03.398Z,91.70
2022-08-09T23:06:32.811Z,92.00
2022-08-09T23:09:06.149Z,91.90
2022-08-09T23:11:33.317Z,91.90
2022-08-09T23:14:00.350Z,92.00
2022-08-09T23:16:27.436Z,91.70
2022-08-09T23:18:54.695Z,91.70
2022-08-09T23:21:24.595Z,91.20
2022-08-09T23:24:04.137Z,91.00
2022-08-09T23:26:35.672Z,91.00
2022-08-09T23:29:04.057Z,91.50
2022-08-09T23:31:30.995Z,91.50
2022-08-09T23:33:58.055Z,91.60
2022-08-09T23:36:25.007Z,91.80
2022-08-09T23:38:51.927Z,91.60
2022-08-09T23:41:29.036Z,91.30
2022-08-09T23:43:58.579Z,90.80
2022-08-09T23:46:26.000Z,91.10
2022-08-09T23:48:53.109Z,90.80
2022-08-09T23:51:20.194Z,90.90
2022-08-09T23:53:47.424Z,91.10
2022-08-09T23:56:17.471Z,90.50
2022-08-09T23:59:04.659Z,90.50
